Time;durP1;ratioP1;P1;durP2;ratioP2;P2;SDS_P1;SDS_P2;PMS_P1;PMS_P2;Temp;Humidity;BMP_temperature;BMP_pressure;BME280_temperature;BME280_humidity;BME280_pressure;Samples;Min_cycle;Max_cycle;Signal;HPM_P1;HPM_P2
2020/12/07 00:00:08;;;;;;;87.77;42.23;;;4.20;99.90;;;;;;5024228;28;20199;-64
2020/12/07 00:02:33;;;;;;;79.53;37.33;;;4.10;99.90;;;;;;5013121;28;20594;-64
2020/12/07 00:05:00;;;;;;;120.83;48.43;;;4.10;99.90;;;;;;5020040;28;20218;-64
2020/12/07 00:07:26;;;;;;;96.27;42.37;;;4.10;99.90;;;;;;5033400;28;20175;-65
2020/12/07 00:09:52;;;;;;;82.20;36.83;;;4.10;99.90;;;;;;5027100;28;20212;-65
2020/12/07 00:12:17;;;;;;;80.23;37.03;;;4.10;99.90;;;;;;5013053;28;20176;-65
2020/12/07 00:14:43;;;;;;;83.43;38.57;;;4.00;99.90;;;;;;5016210;28;20289;-64
2020/12/07 00:17:08;;;;;;;79.63;36.70;;;4.00;99.90;;;;;;5023024;28;20183;-64
2020/12/07 00:19:34;;;;;;;97.30;41.80;;;4.00;99.90;;;;;;5014531;28;20196;-65
2020/12/07 00:22:00;;;;;;;85.20;41.07;;;4.00;99.90;;;;;;5032228;28;20306;-64
2020/12/07 00:24:25;;;;;;;71.97;34.80;;;4.00;99.90;;;;;;5032403;28;20539;-64
2020/12/07 00:26:51;;;;;;;71.70;38.80;;;4.00;99.90;;;;;;5013054;28;20185;-64
2020/12/07 00:29:16;;;;;;;65.43;35.80;;;4.00;99.90;;;;;;5011648;28;20204;-64
2020/12/07 00:31:42;;;;;;;64.97;33.80;;;4.10;99.90;;;;;;5030514;28;20179;-64
2020/12/07 00:34:08;;;;;;;59.97;33.33;;;4.10;99.90;;;;;;5032137;28;20342;-64
2020/12/07 00:36:33;;;;;;;61.97;33.20;;;4.10;99.90;;;;;;5014654;28;20184;-64
2020/12/07 00:38:59;;;;;;;68.33;34.10;;;4.10;99.90;;;;;;5018746;28;20273;-64
2020/12/07 00:41:24;;;;;;;56.53;30.67;;;4.20;99.90;;;;;;5032037;28;20246;-64
2020/12/07 00:43:51;;;;;;;74.30;35.40;;;4.20;99.90;;;;;;5027146;28;20267;-64
2020/12/07 00:46:17;;;;;;;74.50;36.17;;;4.10;99.90;;;;;;5012376;28;20659;-64
2020/12/07 00:48:43;;;;;;;61.50;34.23;;;4.20;99.90;;;;;;5015345;28;20546;-64
2020/12/07 00:51:08;;;;;;;71.37;36.17;;;4.20;99.90;;;;;;5032034;28;20179;-64
2020/12/07 00:53:34;;;;;;;71.93;37.10;;;4.10;99.90;;;;;;5030320;28;20265;-64
2020/12/07 00:56:00;;;;;;;63.17;32.33;;;4.20;99.90;;;;;;5012059;28;20238;-64
2020/12/07 00:58:27;;;;;;;63.67;34.47;;;4.10;99.90;;;;;;5012403;28;20169;-64
2020/12/07 01:00:53;;;;;;;74.30;34.90;;;4.10;99.90;;;;;;5031382;28;20203;-64
2020/12/07 01:03:19;;;;;;;63.83;34.03;;;4.10;99.90;;;;;;5012852;28;20234;-64
2020/12/07 01:05:44;;;;;;;69.67;34.17;;;4.10;99.90;;;;;;5012049;28;20314;-64
2020/12/07 01:08:10;;;;;;;51.90;26.67;;;4.00;99.90;;;;;;5028797;28;20274;-64
2020/12/07 01:10:36;;;;;;;62.60;31.53;;;4.00;99.90;;;;;;5030937;28;20195;-64
2020/12/07 01:13:03;;;;;;;62.07;33.77;;;4.00;99.90;;;;;;5016155;28;20235;-64
2020/12/07 01:15:28;;;;;;;63.50;30.67;;;4.00;99.90;;;;;;5012162;28;20320;-64
2020/12/07 01:17:54;;;;;;;68.33;32.77;;;4.00;99.90;;;;;;5025133;28;20179;-64
2020/12/07 01:20:19;;;;;;;58.17;30.53;;;4.10;99.90;;;;;;5031283;28;20319;-64
2020/12/07 01:22:45;;;;;;;60.53;30.20;;;4.10;99.90;;;;;;5019575;28;20192;-64
2020/12/07 01:25:11;;;;;;;55.97;30.23;;;4.10;99.90;;;;;;5011945;28;20188;-64
2020/12/07 01:27:36;;;;;;;48.60;27.27;;;4.10;99.90;;;;;;5012948;28;20172;-64
2020/12/07 01:30:03;;;;;;;55.13;29.57;;;4.10;99.90;;;;;;5011283;28;20281;-65
2020/12/07 01:32:29;;;;;;;54.80;30.83;;;4.10;99.90;;;;;;5019570;28;20207;-64
2020/12/07 01:34:54;;;;;;;41.87;25.53;;;4.10;99.90;;;;;;5031571;28;20273;-64
2020/12/07 01:37:20;;;;;;;56.17;31.57;;;4.10;99.90;;;;;;5025535;28;20523;-65
2020/12/07 01:39:45;;;;;;;57.03;29.07;;;4.00;99.90;;;;;;5014408;28;20199;-65
2020/12/07 01:42:11;;;;;;;65.70;31.33;;;4.00;99.90;;;;;;5031156;28;20191;-64
2020/12/07 01:44:37;;;;;;;64.73;32.67;;;4.00;99.90;;;;;;5030658;28;20179;-65
2020/12/07 01:47:21;;;;;;;56.07;29.03;;;4.00;99.90;;;;;;5011847;28;20180;-64
2020/12/07 01:49:48;;;;;;;48.63;26.80;;;4.00;99.90;;;;;;5013022;28;20257;-64
2020/12/07 01:52:13;;;;;;;56.10;30.60;;;4.00;99.90;;;;;;5031048;28;20210;-64
2020/12/07 01:54:39;;;;;;;41.50;24.33;;;4.00;99.90;;;;;;5031006;28;20230;-65
2020/12/07 01:57:05;;;;;;;57.13;28.67;;;4.00;99.90;;;;;;4990766;28;20219;-64
2020/12/07 01:59:30;;;;;;;35.80;21.20;;;4.00;99.90;;;;;;4991988;28;20730;-64
2020/12/07 02:01:56;;;;;;;38.57;20.23;;;4.00;99.90;;;;;;5027866;28;20179;-64
2020/12/07 02:04:21;;;;;;;56.50;29.27;;;3.90;99.90;;;;;;5031490;28;20184;-65
2020/12/07 02:06:47;;;;;;;54.90;28.43;;;4.00;99.90;;;;;;5029621;28;20175;-64
2020/12/07 02:09:13;;;;;;;37.00;20.10;;;3.90;99.90;;;;;;5018370;28;20216;-64
2020/12/07 02:11:38;;;;;;;57.53;26.23;;;3.90;99.90;;;;;;5010167;28;20317;-64
2020/12/07 02:14:04;;;;;;;48.00;27.33;;;3.90;99.90;;;;;;5020826;28;20211;-64
2020/12/07 02:16:29;;;;;;;52.03;27.97;;;3.90;99.90;;;;;;5031403;28;20187;-64
2020/12/07 02:18:58;;;;;;;47.77;27.53;;;3.90;99.90;;;;;;5021747;28;20180;-64
2020/12/07 02:21:24;;;;;;;49.77;27.23;;;3.90;99.90;;;;;;5010679;28;20176;-64
2020/12/07 02:23:49;;;;;;;55.30;27.43;;;3.90;99.90;;;;;;5022652;28;20187;-64
2020/12/07 02:26:15;;;;;;;52.63;28.00;;;3.90;99.90;;;;;;5034838;28;20262;-64
2020/12/07 02:28:41;;;;;;;52.90;29.37;;;3.90;99.90;;;;;;5028585;28;20191;-64
2020/12/07 02:31:06;;;;;;;45.17;26.10;;;3.90;99.90;;;;;;5014688;28;20239;-64
2020/12/07 02:33:32;;;;;;;56.80;27.77;;;3.90;99.90;;;;;;5019129;28;20722;-64
2020/12/07 02:35:57;;;;;;;50.37;26.07;;;3.90;99.90;;;;;;5034710;28;20183;-64
2020/12/07 02:38:23;;;;;;;58.70;31.27;;;3.90;99.90;;;;;;5023785;28;20198;-64
2020/12/07 02:40:49;;;;;;;56.90;29.03;;;3.90;99.90;;;;;;5014526;28;20208;-64
2020/12/07 02:43:14;;;;;;;61.53;32.27;;;3.90;99.90;;;;;;5023609;28;20218;-64
2020/12/07 02:45:40;;;;;;;59.43;31.37;;;3.90;99.90;;;;;;5034622;28;20271;-64
2020/12/07 02:48:05;;;;;;;63.33;33.60;;;3.80;99.90;;;;;;5026989;28;20641;-64
2020/12/07 02:50:31;;;;;;;67.67;33.47;;;3.80;99.90;;;;;;5015392;28;20215;-64
2020/12/07 02:52:57;;;;;;;70.97;35.83;;;3.80;99.90;;;;;;5014516;28;20211;-64
2020/12/07 02:55:22;;;;;;;71.23;34.33;;;3.80;99.90;;;;;;5015070;28;20219;-64
2020/12/07 02:57:48;;;;;;;64.50;30.13;;;3.90;99.90;;;;;;5034389;28;20633;-64
2020/12/07 03:00:13;;;;;;;77.13;36.93;;;3.90;99.90;;;;;;5033800;28;20608;-64
2020/12/07 03:02:39;;;;;;;82.37;39.50;;;3.90;99.90;;;;;;5015382;28;20185;-64
2020/12/07 03:05:06;;;;;;;78.73;37.03;;;3.90;99.90;;;;;;5014508;28;20184;-64
2020/12/07 03:07:32;;;;;;;79.53;38.33;;;3.90;99.90;;;;;;5031663;28;20277;-64
2020/12/07 03:09:57;;;;;;;88.67;38.63;;;3.90;99.90;;;;;;5033914;28;20289;-64
2020/12/07 03:12:23;;;;;;;69.37;31.90;;;3.80;99.90;;;;;;5018761;28;20192;-64
2020/12/07 03:14:49;;;;;;;71.90;36.10;;;3.80;99.90;;;;;;5014345;28;20510;-64
2020/12/07 03:17:15;;;;;;;75.93;33.97;;;3.80;99.90;;;;;;5027537;28;20190;-64
2020/12/07 03:19:40;;;;;;;85.80;33.97;;;3.80;99.90;;;;;;5033836;28;20188;-65
2020/12/07 03:22:06;;;;;;;83.20;39.77;;;3.80;99.90;;;;;;5021526;28;20250;-64
2020/12/07 03:24:31;;;;;;;72.70;35.00;;;3.80;99.90;;;;;;5014185;28;20183;-64
2020/12/07 03:26:57;;;;;;;81.77;37.23;;;3.70;99.90;;;;;;5023212;28;20194;-64
2020/12/07 03:29:23;;;;;;;76.77;36.63;;;3.70;99.90;;;;;;5027386;28;20214;-64
2020/12/07 03:31:48;;;;;;;69.87;34.30;;;3.70;99.90;;;;;;5013777;28;20180;-64
2020/12/07 03:34:14;;;;;;;94.23;42.00;;;3.70;99.90;;;;;;5017478;28;20214;-64
2020/12/07 03:36:40;;;;;;;98.67;44.87;;;3.70;99.90;;;;;;5033635;28;20180;-64
2020/12/07 03:39:06;;;;;;;97.17;42.50;;;3.70;99.90;;;;;;5030693;28;20192;-64
2020/12/07 03:41:32;;;;;;;89.83;39.43;;;3.70;99.90;;;;;;5013512;28;20184;-64
2020/12/07 03:43:58;;;;;;;98.03;44.90;;;3.70;99.90;;;;;;5014253;28;20263;-65
2020/12/07 03:46:23;;;;;;;94.10;41.20;;;3.70;99.90;;;;;;5031976;28;20217;-65
2020/12/07 03:48:49;;;;;;;88.10;41.20;;;3.70;99.90;;;;;;5033114;28;20183;-64
2020/12/07 03:51:15;;;;;;;104.30;42.30;;;3.70;99.90;;;;;;5014055;28;20188;-64
2020/12/07 03:53:42;;;;;;;95.67;43.03;;;3.70;99.90;;;;;;5020423;28;20203;-64
2020/12/07 03:56:08;;;;;;;97.90;42.93;;;3.70;99.90;;;;;;5033277;28;20186;-64
2020/12/07 03:58:34;;;;;;;98.00;43.70;;;3.70;99.90;;;;;;5018818;28;20188;-64
2020/12/07 04:01:01;;;;;;;95.43;41.73;;;3.70;99.90;;;;;;5013040;28;20192;-64
2020/12/07 04:03:28;;;;;;;94.37;43.70;;;3.70;99.90;;;;;;5025743;28;20600;-64
2020/12/07 04:08:39;;;;;;;96.27;40.53;;;3.70;99.90;;;;;;5031642;28;20588;-64
2020/12/07 04:11:04;;;;;;;92.23;39.77;;;3.70;99.90;;;;;;5032750;28;20180;-64
2020/12/07 04:13:30;;;;;;;93.97;40.70;;;3.70;99.90;;;;;;5022870;28;20208;-64
2020/12/07 04:15:56;;;;;;;87.03;38.20;;;3.70;99.90;;;;;;5032848;28;20180;-64
2020/12/07 04:18:22;;;;;;;87.63;38.30;;;3.70;99.90;;;;;;5022666;28;20210;-64
2020/12/07 04:20:47;;;;;;;84.70;39.40;;;3.70;99.90;;;;;;5012580;28;20196;-64
2020/12/07 04:23:13;;;;;;;96.00;39.37;;;3.70;99.90;;;;;;5014103;28;20227;-64
2020/12/07 04:25:38;;;;;;;87.63;39.33;;;3.70;99.90;;;;;;5013103;28;20188;-64
2020/12/07 04:28:04;;;;;;;94.27;41.07;;;3.70;99.90;;;;;;5018765;28;20226;-64
2020/12/07 04:30:30;;;;;;;94.00;38.37;;;3.70;99.90;;;;;;5032107;28;20195;-65
2020/12/07 04:32:55;;;;;;;79.40;36.40;;;3.70;99.90;;;;;;5028144;28;20207;-64
2020/12/07 04:35:21;;;;;;;89.57;37.30;;;3.70;99.90;;;;;;5012946;28;20199;-64
2020/12/07 04:37:47;;;;;;;83.17;36.33;;;3.70;99.90;;;;;;5025592;28;20172;-64
2020/12/07 04:40:13;;;;;;;80.37;36.87;;;3.70;99.90;;;;;;5032526;28;20719;-64
2020/12/07 04:42:41;;;;;;;73.63;32.53;;;3.70;99.90;;;;;;5021385;28;20203;-65
2020/12/07 04:45:08;;;;;;;80.33;36.13;;;3.70;99.90;;;;;;5012061;28;20172;-65
2020/12/07 04:47:34;;;;;;;78.57;35.33;;;3.70;99.90;;;;;;5022255;28;20168;-64
2020/12/07 04:50:04;;;;;;;78.60;36.73;;;3.70;99.90;;;;;;5031655;22;20247;-64
2020/12/07 04:52:31;;;;;;;79.90;35.27;;;3.70;99.90;;;;;;5025740;28;20259;-64
2020/12/07 04:54:58;;;;;;;74.83;34.57;;;3.70;99.90;;;;;;5032072;28;20581;-65
2020/12/07 04:57:25;;;;;;;73.17;35.30;;;3.70;99.90;;;;;;5020823;28;20661;-65
2020/12/07 04:59:52;;;;;;;80.13;36.70;;;3.70;99.90;;;;;;5012113;28;20196;-66
2020/12/07 05:02:17;;;;;;;81.67;39.17;;;3.70;99.90;;;;;;5011719;28;20187;-65
2020/12/07 05:04:44;;;;;;;74.63;36.17;;;3.70;99.90;;;;;;5012130;28;20247;-65
2020/12/07 05:07:10;;;;;;;87.70;38.03;;;3.80;99.90;;;;;;5011989;28;20180;-65
2020/12/07 05:09:37;;;;;;;71.83;37.77;;;3.70;99.90;;;;;;5012278;28;20203;-65
2020/12/07 05:12:15;;;;;;;74.50;35.77;;;3.70;99.90;;;;;;5011515;28;20172;-65
2020/12/07 05:14:41;;;;;;;88.30;37.63;;;3.70;99.90;;;;;;5012051;28;20207;-65
2020/12/07 05:17:06;;;;;;;89.97;35.47;;;3.70;99.90;;;;;;5011696;28;20187;-65
2020/12/07 05:19:32;;;;;;;80.87;37.13;;;3.70;99.90;;;;;;5011718;28;20664;-65
2020/12/07 05:21:57;;;;;;;77.03;36.30;;;3.70;99.90;;;;;;5011028;28;20254;-65
2020/12/07 05:24:24;;;;;;;84.93;39.70;;;3.60;99.90;;;;;;5011607;28;20775;-65
2020/12/07 05:26:50;;;;;;;74.23;36.57;;;3.60;99.90;;;;;;4992322;28;20181;-65
2020/12/07 05:29:30;;;;;;;86.60;40.17;;;3.60;99.90;;;;;;4991564;28;20188;-65
2020/12/07 05:31:56;;;;;;;75.00;35.47;;;3.60;99.90;;;;;;5010232;28;20183;-65
2020/12/07 05:34:25;;;;;;;76.53;36.93;;;3.50;99.90;;;;;;5011657;28;20207;-65
2020/12/07 05:36:55;;;;;;;94.40;41.90;;;3.60;99.90;;;;;;5011482;28;20199;-64
2020/12/07 05:39:23;;;;;;;81.07;37.60;;;3.60;99.90;;;;;;5011772;28;20196;-65
2020/12/07 05:41:49;;;;;;;97.73;41.70;;;3.50;99.90;;;;;;5011408;28;20180;-65
2020/12/07 05:44:16;;;;;;;93.30;42.83;;;3.50;99.90;;;;;;5011612;28;20176;-64
2020/12/07 05:46:45;;;;;;;90.20;42.40;;;3.50;99.90;;;;;;5011519;28;20219;-64
2020/12/07 05:49:13;;;;;;;88.10;40.13;;;3.50;99.90;;;;;;5011522;28;20207;-65
2020/12/07 05:51:41;;;;;;;67.73;31.43;;;3.50;99.90;;;;;;5011234;28;20206;-65
2020/12/07 05:54:08;;;;;;;81.20;36.83;;;3.50;99.90;;;;;;5011318;28;20203;-65
2020/12/07 05:56:38;;;;;;;86.43;39.60;;;3.50;99.90;;;;;;5013731;28;20168;-65
2020/12/07 05:59:12;;;;;;;84.30;38.03;;;3.50;99.90;;;;;;5015262;28;20222;-65
2020/12/07 06:01:38;;;;;;;96.00;39.90;;;3.50;99.90;;;;;;5015177;28;20641;-64
2020/12/07 06:04:04;;;;;;;85.30;39.93;;;3.50;99.90;;;;;;5015216;28;20263;-65
2020/12/07 06:06:32;;;;;;;91.83;40.57;;;3.60;99.90;;;;;;5015230;28;20628;-65
2020/12/07 06:09:04;;;;;;;88.43;39.97;;;3.60;99.90;;;;;;5015275;28;20172;-65
2020/12/07 06:11:34;;;;;;;101.67;42.33;;;3.60;99.90;;;;;;5015123;28;20315;-64
2020/12/07 06:14:00;;;;;;;90.63;40.93;;;3.60;99.90;;;;;;5015176;28;20286;-65
2020/12/07 06:16:27;;;;;;;91.43;42.47;;;3.60;99.90;;;;;;5014929;28;20187;-64
2020/12/07 06:18:55;;;;;;;91.73;40.87;;;3.60;99.90;;;;;;5015151;28;20171;-65
2020/12/07 06:21:22;;;;;;;92.67;40.43;;;3.60;99.90;;;;;;5014504;28;20203;-65
2020/12/07 06:23:48;;;;;;;96.43;40.40;;;3.60;99.90;;;;;;5015035;28;20183;-66
2020/12/07 06:26:17;;;;;;;99.77;41.90;;;3.70;99.90;;;;;;5014804;28;20180;-65
2020/12/07 06:28:45;;;;;;;89.93;37.97;;;3.70;99.90;;;;;;5014662;28;20180;-65
2020/12/07 06:31:14;;;;;;;96.90;40.93;;;3.70;99.90;;;;;;5014391;28;20285;-65
2020/12/07 06:33:45;;;;;;;85.40;38.23;;;3.70;99.90;;;;;;5014868;28;20212;-65
2020/12/07 06:36:28;;;;;;;96.57;40.57;;;3.70;99.90;;;;;;5014559;28;20230;-65
2020/12/07 06:38:56;;;;;;;86.80;38.60;;;3.70;99.90;;;;;;4995217;28;20187;-65
2020/12/07 06:41:33;;;;;;;83.47;38.40;;;3.70;99.90;;;;;;5012021;28;20192;-65
2020/12/07 06:44:00;;;;;;;90.27;39.17;;;3.80;99.90;;;;;;5014788;28;20538;-64
2020/12/07 06:46:57;;;;;;;77.97;34.07;;;3.80;99.90;;;;;;5014688;28;20180;-65
2020/12/07 06:49:32;;;;;;;77.43;35.30;;;3.80;99.90;;;;;;5014317;28;20338;-65
2020/12/07 06:52:06;;;;;;;69.73;29.47;;;3.80;99.90;;;;;;5014328;28;20247;-65
2020/12/07 06:57:48;;;;;;;80.93;35.47;;;3.80;99.90;;;;;;5014564;28;20218;-65
2020/12/07 07:00:27;;;;;;;67.57;33.60;;;3.80;99.90;;;;;;5006211;28;20295;-65
2020/12/07 07:02:59;;;;;;;68.87;32.33;;;3.70;99.90;;;;;;5014083;28;20183;-65
2020/12/07 07:05:28;;;;;;;67.37;29.97;;;3.80;99.90;;;;;;5014131;28;20229;-66
2020/12/07 07:07:55;;;;;;;75.80;33.83;;;3.80;99.90;;;;;;5013345;28;20168;-65
2020/12/07 07:10:21;;;;;;;74.57;30.60;;;3.80;99.90;;;;;;5013669;28;20203;-66
2020/12/07 07:12:49;;;;;;;77.83;33.63;;;3.80;99.90;;;;;;5012599;28;20180;-65
2020/12/07 07:15:15;;;;;;;73.63;32.27;;;3.80;99.90;;;;;;5013824;28;20180;-66
2020/12/07 07:17:42;;;;;;;73.27;36.70;;;3.80;99.90;;;;;;5014106;28;20182;-65
2020/12/07 07:20:11;;;;;;;66.43;30.83;;;3.80;99.90;;;;;;5013280;28;20200;-65
2020/12/07 07:22:40;;;;;;;74.67;33.50;;;3.80;99.90;;;;;;5013665;28;20179;-65
2020/12/07 07:30:26;;;;;;;76.53;32.80;;;3.80;99.90;;;;;;5013365;28;20779;-65
2020/12/07 07:32:54;;;;;;;66.40;31.07;;;3.70;99.90;;;;;;5013598;28;20207;-65
2020/12/07 07:35:22;;;;;;;73.73;33.57;;;3.80;99.90;;;;;;5013296;28;20179;-65
2020/12/07 07:37:48;;;;;;;73.97;33.27;;;3.80;99.90;;;;;;5012911;28;20172;-66
2020/12/07 07:40:17;;;;;;;74.27;32.83;;;3.80;99.90;;;;;;5013307;28;20829;-65
2020/12/07 07:42:51;;;;;;;77.87;33.30;;;3.80;99.90;;;;;;5013243;28;20279;-65
2020/12/07 07:45:19;;;;;;;68.10;31.90;;;3.80;99.90;;;;;;5013481;28;20168;-65
2020/12/07 08:16:58;;;;;;;64.20;31.20;;;4.30;99.90;;;;;;5012844;28;20176;-66
2020/12/07 08:19:28;;;;;;;55.70;29.80;;;4.30;99.90;;;;;;5012462;28;20200;-66
2020/12/07 08:21:54;;;;;;;69.80;31.80;;;4.40;99.90;;;;;;5012448;28;20251;-66
2020/12/07 08:24:19;;;;;;;59.67;28.67;;;4.40;99.90;;;;;;5011256;28;20276;-65
2020/12/07 08:26:45;;;;;;;56.20;27.63;;;4.60;99.90;;;;;;5012237;28;20208;-66
2020/12/07 08:29:11;;;;;;;54.13;28.23;;;4.60;99.90;;;;;;5011942;28;20192;-65
2020/12/07 08:31:38;;;;;;;57.00;28.07;;;4.70;99.90;;;;;;5012001;28;20184;-65
2020/12/07 08:34:11;;;;;;;51.50;26.10;;;4.70;99.90;;;;;;5012309;28;20192;-65
2020/12/07 08:36:38;;;;;;;50.63;25.37;;;4.70;99.90;;;;;;5012715;28;20169;-65
2020/12/07 08:39:05;;;;;;;50.07;25.67;;;4.80;99.90;;;;;;5012100;28;20177;-66
2020/12/07 08:41:33;;;;;;;45.53;24.47;;;4.80;99.90;;;;;;5012435;28;20172;-65
2020/12/07 08:44:05;;;;;;;53.53;24.77;;;4.90;99.90;;;;;;5011951;28;20645;-65
2020/12/07 08:46:33;;;;;;;43.60;23.33;;;4.90;99.90;;;;;;5012353;28;20168;-65
2020/12/07 08:49:00;;;;;;;44.80;24.53;;;4.90;99.90;;;;;;5011913;28;20649;-65
2020/12/07 08:51:28;;;;;;;53.50;22.73;;;4.90;99.90;;;;;;5011979;28;20188;-65
2020/12/07 08:53:55;;;;;;;41.83;21.80;;;4.90;99.90;;;;;;5011901;28;20215;-66
2020/12/07 08:56:21;;;;;;;40.80;20.93;;;4.90;99.90;;;;;;5012428;28;20655;-65
2020/12/07 08:58:47;;;;;;;35.57;20.50;;;4.80;99.90;;;;;;5011988;28;20247;-65
2020/12/07 09:01:13;;;;;;;39.30;21.00;;;4.80;99.90;;;;;;5011645;28;20275;-66
2020/12/07 09:03:44;;;;;;;39.57;20.20;;;4.80;99.90;;;;;;5012141;28;20195;-66
2020/12/07 09:06:12;;;;;;;42.37;20.33;;;4.70;99.90;;;;;;5012179;28;20191;-65
2020/12/07 09:08:37;;;;;;;36.73;18.00;;;4.70;99.90;;;;;;5011698;28;20174;-65
2020/12/07 09:11:08;;;;;;;39.60;18.47;;;4.60;99.90;;;;;;5011515;28;20196;-65
2020/12/07 09:13:35;;;;;;;38.37;19.03;;;4.60;99.90;;;;;;5012220;28;20231;-65
2020/12/07 09:16:01;;;;;;;30.30;16.97;;;4.60;99.90;;;;;;5011346;28;20199;-65
2020/12/07 09:18:27;;;;;;;34.47;19.50;;;4.60;99.90;;;;;;5011652;28;20172;-64
2020/12/07 09:20:53;;;;;;;39.13;19.73;;;4.60;99.90;;;;;;5011153;28;20198;-65
2020/12/07 09:23:19;;;;;;;37.73;17.27;;;4.60;99.90;;;;;;5011662;28;20176;-65
2020/12/07 09:25:45;;;;;;;37.67;17.23;;;4.70;99.90;;;;;;5011514;28;20183;-65
2020/12/07 09:28:11;;;;;;;36.13;17.97;;;4.80;99.90;;;;;;5011560;28;20234;-65
2020/12/07 09:30:37;;;;;;;34.67;19.00;;;4.90;99.90;;;;;;5010832;28;20196;-65
2020/12/07 09:33:03;;;;;;;35.63;17.70;;;4.90;99.90;;;;;;5011617;28;20732;-65
2020/12/07 09:35:28;;;;;;;32.93;16.93;;;4.90;99.90;;;;;;5011633;28;20180;-65
2020/12/07 09:37:54;;;;;;;27.50;15.67;;;5.00;99.90;;;;;;5011543;28;20548;-65
2020/12/07 09:40:19;;;;;;;31.47;17.40;;;5.00;99.90;;;;;;5011358;28;20191;-66
2020/12/07 09:42:45;;;;;;;30.27;17.20;;;5.10;99.90;;;;;;5011239;28;20383;-65
2020/12/07 09:45:11;;;;;;;29.47;16.33;;;5.10;99.90;;;;;;5011606;28;20172;-66
2020/12/07 09:47:37;;;;;;;32.73;16.10;;;5.20;99.90;;;;;;5011426;28;20172;-65
2020/12/07 09:50:04;;;;;;;26.87;16.10;;;5.20;99.90;;;;;;5010989;28;20212;-65
2020/12/07 09:52:30;;;;;;;28.07;15.93;;;5.20;99.90;;;;;;5011186;28;20168;-65
2020/12/07 09:54:56;;;;;;;33.50;15.10;;;5.20;99.90;;;;;;5011315;28;20254;-66
2020/12/07 09:57:21;;;;;;;28.83;16.93;;;5.20;99.90;;;;;;5011350;28;20179;-64
2020/12/07 09:59:49;;;;;;;31.47;15.30;;;5.20;99.90;;;;;;5011238;28;20700;-66
2020/12/07 10:02:15;;;;;;;26.83;15.07;;;5.20;99.90;;;;;;5011187;28;20642;-65
2020/12/07 10:04:41;;;;;;;26.60;13.87;;;5.20;99.90;;;;;;5011494;28;20260;-65
2020/12/07 10:07:07;;;;;;;28.50;16.37;;;5.20;99.90;;;;;;5011164;28;20267;-65
2020/12/07 10:09:32;;;;;;;30.87;17.47;;;5.30;99.90;;;;;;5011279;28;20629;-64
2020/12/07 10:11:58;;;;;;;24.70;15.93;;;5.20;99.90;;;;;;5010773;28;20183;-66
2020/12/07 10:14:24;;;;;;;21.60;12.80;;;5.20;99.90;;;;;;5011415;28;20215;-65
2020/12/07 10:16:49;;;;;;;24.00;13.63;;;5.20;99.90;;;;;;5010364;28;20728;-66
2020/12/07 10:19:15;;;;;;;23.20;14.30;;;5.20;99.90;;;;;;5010810;28;20172;-65
2020/12/07 10:21:41;;;;;;;21.60;13.03;;;5.10;99.90;;;;;;5010717;28;20184;-65
2020/12/07 10:24:07;;;;;;;28.93;14.83;;;5.10;99.90;;;;;;5011627;28;20187;-65
2020/12/07 10:26:33;;;;;;;27.57;13.33;;;5.10;99.90;;;;;;5010903;28;20184;-66
2020/12/07 10:28:59;;;;;;;24.10;14.20;;;5.20;99.90;;;;;;5011173;28;20258;-66
2020/12/07 10:31:25;;;;;;;23.70;12.27;;;5.20;99.90;;;;;;5010778;28;20196;-66
2020/12/07 10:33:51;;;;;;;26.40;13.33;;;5.20;99.90;;;;;;5010700;28;20200;-66
2020/12/07 10:36:18;;;;;;;21.33;12.60;;;5.30;99.90;;;;;;5011194;28;20164;-65
2020/12/07 10:38:45;;;;;;;23.73;12.63;;;5.30;99.90;;;;;;5010616;28;20654;-64
2020/12/07 10:41:11;;;;;;;23.13;12.90;;;5.20;99.90;;;;;;5010811;28;20275;-66
2020/12/07 10:43:37;;;;;;;23.67;13.77;;;5.20;99.90;;;;;;5012718;28;20624;-66
2020/12/07 10:46:03;;;;;;;25.83;13.83;;;5.20;99.90;;;;;;5014668;28;20180;-66
2020/12/07 10:48:29;;;;;;;23.63;13.10;;;5.10;99.90;;;;;;5014829;28;20203;-66
2020/12/07 10:53:24;;;;;;;23.67;13.60;;;5.20;99.90;;;;;;5036934;28;20337;-63
2020/12/07 10:55:50;;;;;;;23.87;13.90;;;5.30;99.90;;;;;;5036487;28;20229;-64
2020/12/07 10:58:16;;;;;;;24.40;13.50;;;5.30;99.90;;;;;;5035103;28;20182;-64
2020/12/07 11:00:42;;;;;;;20.10;12.60;;;5.30;99.90;;;;;;5019124;28;20210;-63
2020/12/07 11:03:08;;;;;;;19.83;11.83;;;5.40;99.90;;;;;;5023058;28;20175;-63
2020/12/07 11:05:34;;;;;;;23.67;14.07;;;5.40;99.90;;;;;;5035293;28;20534;-63
2020/12/07 11:08:01;;;;;;;24.03;12.83;;;5.40;99.90;;;;;;5033336;28;20691;-63
2020/12/07 11:10:26;;;;;;;22.70;13.53;;;5.50;99.90;;;;;;5034282;28;20195;-66
2020/12/07 11:13:02;;;;;;;23.37;13.23;;;5.50;99.90;;;;;;5033766;28;20176;-63
2020/12/07 11:15:29;;;;;;;19.07;11.63;;;5.60;99.90;;;;;;5033133;28;20219;-65
2020/12/07 11:17:54;;;;;;;19.90;11.60;;;5.50;99.90;;;;;;5033737;28;20197;-64
2020/12/07 11:20:20;;;;;;;18.90;11.40;;;5.60;99.90;;;;;;5033523;28;20301;-62
2020/12/07 11:22:45;;;;;;;16.43;10.87;;;5.60;99.90;;;;;;5033684;28;20164;-64
2020/12/07 11:25:11;;;;;;;18.23;11.13;;;5.70;99.90;;;;;;5033975;28;20531;-62
2020/12/07 11:27:37;;;;;;;17.43;10.50;;;5.80;99.90;;;;;;5033904;28;20174;-64
2020/12/07 11:30:03;;;;;;;19.67;10.83;;;5.80;99.90;;;;;;5031973;28;20195;-63
2020/12/07 11:32:28;;;;;;;18.63;10.67;;;6.00;99.90;;;;;;5032316;28;20603;-64
2020/12/07 11:34:54;;;;;;;15.10;9.87;;;6.00;99.90;;;;;;5033387;28;20238;-64
2020/12/07 11:37:19;;;;;;;17.03;10.07;;;6.10;99.90;;;;;;5033864;28;20170;-64
2020/12/07 11:39:57;;;;;;;17.47;9.97;;;6.20;99.90;;;;;;5033309;28;20188;-64
2020/12/07 11:42:41;;;;;;;16.07;9.73;;;6.20;99.90;;;;;;5033558;28;20195;-64
2020/12/07 11:45:06;;;;;;;12.83;8.80;;;6.30;99.90;;;;;;5033665;28;20597;-62
2020/12/07 11:47:32;;;;;;;15.77;9.37;;;6.40;99.90;;;;;;5033168;28;20211;-64
2020/12/07 11:49:58;;;;;;;12.90;9.07;;;6.40;99.90;;;;;;5032934;28;20199;-64
2020/12/07 11:52:23;;;;;;;13.10;9.10;;;6.40;99.90;;;;;;5033058;28;20186;-63
2020/12/07 11:54:50;;;;;;;13.20;9.63;;;6.40;99.90;;;;;;5032191;28;20199;-66
2020/12/07 11:57:15;;;;;;;12.37;9.17;;;6.50;99.90;;;;;;5033272;28;20182;-65
2020/12/07 11:59:41;;;;;;;14.53;9.67;;;6.50;99.90;;;;;;5032750;28;20559;-63
2020/12/07 12:02:07;;;;;;;14.50;10.07;;;6.40;99.90;;;;;;5033288;28;20662;-64
2020/12/07 12:04:33;;;;;;;16.53;8.70;;;6.30;99.90;;;;;;5032839;28;20258;-64
2020/12/07 12:06:59;;;;;;;15.47;9.30;;;6.20;99.90;;;;;;5032742;28;20167;-64
2020/12/07 12:09:24;;;;;;;11.23;7.73;;;6.20;99.90;;;;;;5031657;28;20171;-65
2020/12/07 12:11:50;;;;;;;14.93;8.80;;;6.20;99.90;;;;;;5032380;28;20537;-65
2020/12/07 12:14:16;;;;;;;12.77;9.03;;;6.20;99.90;;;;;;5032420;28;20195;-64
2020/12/07 12:16:42;;;;;;;16.23;8.53;;;6.30;99.90;;;;;;5032414;28;20239;-64
2020/12/07 12:19:11;;;;;;;14.30;8.37;;;6.10;99.90;;;;;;5031891;28;20171;-62
2020/12/07 12:21:38;;;;;;;16.03;9.40;;;6.20;99.90;;;;;;5032344;28;20214;-64
2020/12/07 12:24:05;;;;;;;15.60;8.37;;;6.30;99.90;;;;;;5032497;28;20366;-61
2020/12/07 12:26:33;;;;;;;11.13;7.77;;;6.40;99.90;;;;;;5032423;28;20264;-64
2020/12/07 12:28:59;;;;;;;11.67;8.00;;;6.30;99.90;;;;;;5033949;28;20175;-64
2020/12/07 12:31:25;;;;;;;9.17;6.87;;;6.10;99.90;;;;;;5033227;28;20231;-64
2020/12/07 12:33:53;;;;;;;10.33;7.67;;;6.00;99.90;;;;;;5033431;28;20285;-63
2020/12/07 12:36:21;;;;;;;13.93;8.27;;;6.00;99.90;;;;;;5032290;28;20176;-64
2020/12/07 12:38:47;;;;;;;12.07;7.83;;;5.90;99.90;;;;;;5032117;28;20195;-64
2020/12/07 12:41:14;;;;;;;17.97;8.77;;;5.90;99.90;;;;;;5031938;28;20285;-64
2020/12/07 12:43:40;;;;;;;14.43;8.20;;;5.90;99.90;;;;;;5032448;28;20596;-64
2020/12/07 12:46:06;;;;;;;13.87;8.80;;;5.80;99.90;;;;;;5031838;28;20183;-64
2020/12/07 12:48:33;;;;;;;12.83;8.00;;;5.80;99.90;;;;;;5031830;28;20171;-63
2020/12/07 12:50:59;;;;;;;10.77;7.17;;;5.80;99.90;;;;;;5031663;28;20195;-62
2020/12/07 12:53:25;;;;;;;8.83;7.03;;;5.70;99.90;;;;;;5031885;28;20199;-62
2020/12/07 12:55:50;;;;;;;10.00;6.20;;;5.80;99.90;;;;;;5031527;28;20175;-63
2020/12/07 12:58:16;;;;;;;9.43;6.70;;;5.80;99.90;;;;;;5032121;28;20214;-63
2020/12/07 13:00:41;;;;;;;9.80;5.77;;;5.70;99.90;;;;;;5031016;28;20198;-64
2020/12/07 13:03:07;;;;;;;9.63;6.73;;;5.70;99.90;;;;;;5031596;28;20179;-64
2020/12/07 13:05:33;;;;;;;8.30;6.07;;;5.70;99.90;;;;;;5031360;28;20195;-64
2020/12/07 13:07:59;;;;;;;8.83;5.23;;;5.60;99.90;;;;;;5031532;28;20588;-62
2020/12/07 13:10:24;;;;;;;9.53;5.37;;;5.50;99.90;;;;;;5031541;28;20278;-64
2020/12/07 13:12:50;;;;;;;7.63;5.23;;;5.60;99.90;;;;;;5031321;28;20209;-64
2020/12/07 13:15:15;;;;;;;6.03;4.50;;;5.60;99.90;;;;;;5031524;28;20180;-64
2020/12/07 13:17:43;;;;;;;5.93;4.57;;;5.50;99.90;;;;;;5031640;28;20180;-65